sensor_id;sensor_type;location;lat;lon;timestamp;P1;durP1;ratioP1;P2;durP2;ratioP2
2175;SDS011;1094;49.902;10.876;2023-10-08T00:01:18;22.83;;;21.13;;
2175;SDS011;1094;49.902;10.876;2023-10-08T00:03:44;23.27;;;21.63;;
2175;SDS011;1094;49.902;10.876;2023-10-08T00:06:18;23.17;;;21.57;;
2175;SDS011;1094;49.902;10.876;2023-10-08T00:08:45;24.10;;;22.20;;
2175;SDS011;1094;49.902;10.876;2023-10-08T00:11:12;24.13;;;22.30;;
2175;SDS011;1094;49.902;10.876;2023-10-08T00:13:40;24.00;;;21.93;;
2175;SDS011;1094;49.902;10.876;2023-10-08T00:16:07;23.27;;;21.33;;
2175;SDS011;1094;49.902;10.876;2023-10-08T00:18:37;23.70;;;21.90;;
2175;SDS011;1094;49.902;10.876;2023-10-08T00:21:03;24.17;;;22.00;;
2175;SDS011;1094;49.902;10.876;2023-10-08T00:23:35;23.13;;;21.60;;
2175;SDS011;1094;49.902;10.876;2023-10-08T00:26:06;22.87;;;21.27;;
2175;SDS011;1094;49.902;10.876;2023-10-08T00:28:32;23.97;;;22.13;;
2175;SDS011;1094;49.902;10.876;2023-10-08T00:31:00;24.47;;;22.80;;
2175;SDS011;1094;49.902;10.876;2023-10-08T00:33:35;23.43;;;21.80;;
2175;SDS011;1094;49.902;10.876;2023-10-08T00:36:01;23.70;;;21.87;;
2175;SDS011;1094;49.902;10.876;2023-10-08T00:38:42;23.40;;;21.03;;
2175;SDS011;1094;49.902;10.876;2023-10-08T00:41:12;23.80;;;22.17;;
2175;SDS011;1094;49.902;10.876;2023-10-08T00:43:39;23.20;;;21.70;;
2175;SDS011;1094;49.902;10.876;2023-10-08T00:46:06;24.93;;;22.67;;
2175;SDS011;1094;49.902;10.876;2023-10-08T00:48:46;23.50;;;21.53;;
2175;SDS011;1094;49.902;10.876;2023-10-08T00:51:13;22.10;;;20.60;;
2175;SDS011;1094;49.902;10.876;2023-10-08T00:54:01;23.97;;;22.17;;
2175;SDS011;1094;49.902;10.876;2023-10-08T00:56:35;23.27;;;20.97;;
2175;SDS011;1094;49.902;10.876;2023-10-08T00:59:20;22.77;;;21.07;;
2175;SDS011;1094;49.902;10.876;2023-10-08T01:01:48;22.73;;;21.13;;
2175;SDS011;1094;49.902;10.876;2023-10-08T01:04:26;22.13;;;20.73;;
2175;SDS011;1094;49.902;10.876;2023-10-08T01:06:53;23.07;;;21.37;;
2175;SDS011;1094;49.902;10.876;2023-10-08T01:09:21;22.33;;;20.73;;
2175;SDS011;1094;49.902;10.876;2023-10-08T01:12:15;23.43;;;21.53;;
2175;SDS011;1094;49.902;10.876;2023-10-08T01:14:46;22.90;;;21.13;;
2175;SDS011;1094;49.902;10.876;2023-10-08T01:17:13;22.57;;;21.03;;
2175;SDS011;1094;49.902;10.876;2023-10-08T01:19:41;21.63;;;20.23;;
2175;SDS011;1094;49.902;10.876;2023-10-08T01:22:10;22.43;;;20.80;;
2175;SDS011;1094;49.902;10.876;2023-10-08T01:24:46;22.53;;;20.93;;
2175;SDS011;1094;49.902;10.876;2023-10-08T01:27:13;21.90;;;20.27;;
2175;SDS011;1094;49.902;10.876;2023-10-08T01:29:45;22.10;;;20.70;;
2175;SDS011;1094;49.902;10.876;2023-10-08T01:32:11;22.60;;;21.00;;
2175;SDS011;1094;49.902;10.876;2023-10-08T01:34:41;22.63;;;20.97;;
2175;SDS011;1094;49.902;10.876;2023-10-08T01:37:10;21.83;;;20.33;;
2175;SDS011;1094;49.902;10.876;2023-10-08T01:39:37;21.83;;;20.13;;
2175;SDS011;1094;49.902;10.876;2023-10-08T01:42:07;21.83;;;20.43;;
2175;SDS011;1094;49.902;10.876;2023-10-08T01:44:40;22.27;;;20.67;;
2175;SDS011;1094;49.902;10.876;2023-10-08T01:47:06;21.97;;;20.50;;
2175;SDS011;1094;49.902;10.876;2023-10-08T01:49:32;22.07;;;20.40;;
2175;SDS011;1094;49.902;10.876;2023-10-08T01:51:59;21.07;;;19.77;;
2175;SDS011;1094;49.902;10.876;2023-10-08T01:54:30;22.03;;;20.37;;
2175;SDS011;1094;49.902;10.876;2023-10-08T01:57:00;21.83;;;20.43;;
2175;SDS011;1094;49.902;10.876;2023-10-08T01:59:30;22.83;;;21.13;;
2175;SDS011;1094;49.902;10.876;2023-10-08T02:01:57;22.20;;;20.80;;
2175;SDS011;1094;49.902;10.876;2023-10-08T02:04:23;22.03;;;20.33;;
2175;SDS011;1094;49.902;10.876;2023-10-08T02:06:50;21.70;;;20.20;;
2175;SDS011;1094;49.902;10.876;2023-10-08T02:09:16;22.13;;;20.63;;
2175;SDS011;1094;49.902;10.876;2023-10-08T02:11:45;22.10;;;20.60;;
2175;SDS011;1094;49.902;10.876;2023-10-08T02:14:14;22.40;;;20.80;;
2175;SDS011;1094;49.902;10.876;2023-10-08T02:16:41;22.90;;;20.90;;
2175;SDS011;1094;49.902;10.876;2023-10-08T02:19:07;22.03;;;20.57;;
2175;SDS011;1094;49.902;10.876;2023-10-08T02:21:35;21.60;;;20.20;;
2175;SDS011;1094;49.902;10.876;2023-10-08T02:24:03;21.20;;;19.80;;
2175;SDS011;1094;49.902;10.876;2023-10-08T02:26:29;22.13;;;20.60;;
2175;SDS011;1094;49.902;10.876;2023-10-08T02:28:54;22.30;;;20.70;;
2175;SDS011;1094;49.902;10.876;2023-10-08T02:31:20;21.47;;;20.17;;
2175;SDS011;1094;49.902;10.876;2023-10-08T02:33:48;22.07;;;20.57;;
2175;SDS011;1094;49.902;10.876;2023-10-08T02:36:14;20.50;;;19.20;;
2175;SDS011;1094;49.902;10.876;2023-10-08T02:38:40;22.67;;;20.90;;
2175;SDS011;1094;49.902;10.876;2023-10-08T02:41:06;21.83;;;20.33;;
2175;SDS011;1094;49.902;10.876;2023-10-08T02:43:32;23.40;;;21.37;;
2175;SDS011;1094;49.902;10.876;2023-10-08T02:46:02;21.13;;;19.73;;
2175;SDS011;1094;49.902;10.876;2023-10-08T02:48:32;22.03;;;20.30;;
2175;SDS011;1094;49.902;10.876;2023-10-08T02:50:59;21.30;;;20.10;;
2175;SDS011;1094;49.902;10.876;2023-10-08T02:53:36;21.93;;;20.43;;
2175;SDS011;1094;49.902;10.876;2023-10-08T02:56:02;22.40;;;20.70;;
2175;SDS011;1094;49.902;10.876;2023-10-08T02:58:37;23.10;;;21.20;;
2175;SDS011;1094;49.902;10.876;2023-10-08T03:01:03;21.80;;;20.37;;
2175;SDS011;1094;49.902;10.876;2023-10-08T03:03:29;22.67;;;21.00;;
2175;SDS011;1094;49.902;10.876;2023-10-08T03:05:57;22.57;;;21.00;;
2175;SDS011;1094;49.902;10.876;2023-10-08T03:08:23;22.13;;;20.63;;
2175;SDS011;1094;49.902;10.876;2023-10-08T03:10:49;23.00;;;21.50;;
2175;SDS011;1094;49.902;10.876;2023-10-08T03:13:20;22.33;;;20.60;;
2175;SDS011;1094;49.902;10.876;2023-10-08T03:15:47;21.80;;;20.20;;
2175;SDS011;1094;49.902;10.876;2023-10-08T03:18:28;22.63;;;21.07;;
2175;SDS011;1094;49.902;10.876;2023-10-08T03:21:01;21.43;;;20.10;;
2175;SDS011;1094;49.902;10.876;2023-10-08T03:23:30;21.87;;;20.30;;
2175;SDS011;1094;49.902;10.876;2023-10-08T03:26:01;22.97;;;21.23;;
2175;SDS011;1094;49.902;10.876;2023-10-08T03:28:35;21.10;;;19.80;;
2175;SDS011;1094;49.902;10.876;2023-10-08T03:31:02;21.37;;;19.87;;
2175;SDS011;1094;49.902;10.876;2023-10-08T03:33:30;21.80;;;20.20;;
2175;SDS011;1094;49.902;10.876;2023-10-08T03:35:59;21.27;;;19.67;;
2175;SDS011;1094;49.902;10.876;2023-10-08T03:38:28;21.07;;;19.77;;
2175;SDS011;1094;49.902;10.876;2023-10-08T03:41:09;21.47;;;19.80;;
2175;SDS011;1094;49.902;10.876;2023-10-08T03:43:41;22.20;;;20.70;;
2175;SDS011;1094;49.902;10.876;2023-10-08T03:46:26;20.80;;;19.43;;
2175;SDS011;1094;49.902;10.876;2023-10-08T03:48:52;22.57;;;20.50;;
2175;SDS011;1094;49.902;10.876;2023-10-08T03:51:21;21.10;;;19.80;;
2175;SDS011;1094;49.902;10.876;2023-10-08T03:53:47;23.33;;;21.50;;
2175;SDS011;1094;49.902;10.876;2023-10-08T03:56:27;21.53;;;20.13;;
2175;SDS011;1094;49.902;10.876;2023-10-08T03:58:56;22.27;;;20.57;;
2175;SDS011;1094;49.902;10.876;2023-10-08T04:01:25;22.50;;;20.70;;
2175;SDS011;1094;49.902;10.876;2023-10-08T04:03:55;22.27;;;20.80;;
2175;SDS011;1094;49.902;10.876;2023-10-08T04:06:26;20.83;;;19.43;;
2175;SDS011;1094;49.902;10.876;2023-10-08T04:09:01;23.83;;;21.63;;
2175;SDS011;1094;49.902;10.876;2023-10-08T04:11:47;22.10;;;20.50;;
2175;SDS011;1094;49.902;10.876;2023-10-08T04:14:16;22.10;;;20.60;;
2175;SDS011;1094;49.902;10.876;2023-10-08T04:16:42;21.57;;;20.17;;
2175;SDS011;1094;49.902;10.876;2023-10-08T04:19:09;21.77;;;20.00;;
2175;SDS011;1094;49.902;10.876;2023-10-08T04:21:35;21.10;;;19.70;;
2175;SDS011;1094;49.902;10.876;2023-10-08T04:24:01;22.70;;;20.90;;
2175;SDS011;1094;49.902;10.876;2023-10-08T04:26:30;21.60;;;19.90;;
2175;SDS011;1094;49.902;10.876;2023-10-08T04:28:57;21.37;;;20.00;;
2175;SDS011;1094;49.902;10.876;2023-10-08T04:31:26;22.13;;;20.40;;
2175;SDS011;1094;49.902;10.876;2023-10-08T04:34:02;21.90;;;20.10;;
2175;SDS011;1094;49.902;10.876;2023-10-08T04:36:35;22.03;;;20.30;;
2175;SDS011;1094;49.902;10.876;2023-10-08T04:39:03;22.17;;;20.43;;
2175;SDS011;1094;49.902;10.876;2023-10-08T04:41:38;21.27;;;19.77;;
2175;SDS011;1094;49.902;10.876;2023-10-08T04:44:07;21.17;;;19.57;;
2175;SDS011;1094;49.902;10.876;2023-10-08T04:46:38;21.97;;;20.00;;
2175;SDS011;1094;49.902;10.876;2023-10-08T04:49:12;21.77;;;20.27;;
2175;SDS011;1094;49.902;10.876;2023-10-08T04:51:56;22.43;;;20.70;;
2175;SDS011;1094;49.902;10.876;2023-10-08T04:54:25;20.97;;;19.57;;
2175;SDS011;1094;49.902;10.876;2023-10-08T04:57:01;21.63;;;20.13;;
2175;SDS011;1094;49.902;10.876;2023-10-08T04:59:30;21.43;;;19.93;;
2175;SDS011;1094;49.902;10.876;2023-10-08T05:02:02;21.77;;;20.07;;
2175;SDS011;1094;49.902;10.876;2023-10-08T05:04:47;23.03;;;21.17;;
2175;SDS011;1094;49.902;10.876;2023-10-08T05:07:17;22.30;;;20.67;;
2175;SDS011;1094;49.902;10.876;2023-10-08T05:09:46;23.13;;;21.40;;
2175;SDS011;1094;49.902;10.876;2023-10-08T05:12:27;22.30;;;20.63;;
2175;SDS011;1094;49.902;10.876;2023-10-08T05:14:54;22.17;;;20.70;;
2175;SDS011;1094;49.902;10.876;2023-10-08T05:17:44;20.93;;;19.53;;
2175;SDS011;1094;49.902;10.876;2023-10-08T05:20:17;21.17;;;19.73;;
2175;SDS011;1094;49.902;10.876;2023-10-08T05:23:05;22.47;;;20.57;;
2175;SDS011;1094;49.902;10.876;2023-10-08T05:25:45;22.27;;;20.57;;
2175;SDS011;1094;49.902;10.876;2023-10-08T05:31:20;21.17;;;19.77;;
2175;SDS011;1094;49.902;10.876;2023-10-08T05:34:04;21.90;;;20.17;;
2175;SDS011;1094;49.902;10.876;2023-10-08T05:36:41;23.50;;;21.70;;
2175;SDS011;1094;49.902;10.876;2023-10-08T05:39:25;20.50;;;19.13;;
2175;SDS011;1094;49.902;10.876;2023-10-08T05:41:57;21.23;;;19.63;;
2175;SDS011;1094;49.902;10.876;2023-10-08T05:44:40;20.50;;;19.20;;
2175;SDS011;1094;49.902;10.876;2023-10-08T05:47:11;21.27;;;19.87;;
2175;SDS011;1094;49.902;10.876;2023-10-08T05:49:53;21.43;;;19.97;;
2175;SDS011;1094;49.902;10.876;2023-10-08T05:52:39;22.00;;;20.13;;
2175;SDS011;1094;49.902;10.876;2023-10-08T05:55:32;22.00;;;20.10;;
2175;SDS011;1094;49.902;10.876;2023-10-08T05:58:01;22.00;;;20.60;;
2175;SDS011;1094;49.902;10.876;2023-10-08T06:00:49;22.60;;;21.00;;
2175;SDS011;1094;49.902;10.876;2023-10-08T06:03:16;22.07;;;20.60;;
2175;SDS011;1094;49.902;10.876;2023-10-08T06:06:02;22.17;;;20.70;;
2175;SDS011;1094;49.902;10.876;2023-10-08T06:08:38;21.13;;;19.83;;
2175;SDS011;1094;49.902;10.876;2023-10-08T06:11:14;21.50;;;20.20;;
2175;SDS011;1094;49.902;10.876;2023-10-08T06:13:52;24.17;;;22.20;;
2175;SDS011;1094;49.902;10.876;2023-10-08T06:16:25;22.30;;;20.60;;
2175;SDS011;1094;49.902;10.876;2023-10-08T06:19:06;21.90;;;20.50;;
2175;SDS011;1094;49.902;10.876;2023-10-08T06:21:33;22.50;;;20.70;;
2175;SDS011;1094;49.902;10.876;2023-10-08T06:23:59;22.53;;;21.00;;
2175;SDS011;1094;49.902;10.876;2023-10-08T06:26:25;23.23;;;21.60;;
2175;SDS011;1094;49.902;10.876;2023-10-08T06:28:52;20.87;;;19.37;;
2175;SDS011;1094;49.902;10.876;2023-10-08T06:31:23;21.67;;;20.27;;
2175;SDS011;1094;49.902;10.876;2023-10-08T06:33:51;22.37;;;20.70;;
2175;SDS011;1094;49.902;10.876;2023-10-08T06:36:17;22.97;;;21.50;;
2175;SDS011;1094;49.902;10.876;2023-10-08T06:38:49;21.77;;;20.20;;
2175;SDS011;1094;49.902;10.876;2023-10-08T06:41:15;22.20;;;20.70;;
2175;SDS011;1094;49.902;10.876;2023-10-08T06:43:45;23.50;;;21.27;;
2175;SDS011;1094;49.902;10.876;2023-10-08T06:46:27;21.93;;;20.63;;
2175;SDS011;1094;49.902;10.876;2023-10-08T06:48:54;22.27;;;20.47;;
2175;SDS011;1094;49.902;10.876;2023-10-08T06:51:20;22.33;;;20.63;;
2175;SDS011;1094;49.902;10.876;2023-10-08T06:53:46;20.80;;;19.50;;
2175;SDS011;1094;49.902;10.876;2023-10-08T06:56:16;22.00;;;20.40;;
2175;SDS011;1094;49.902;10.876;2023-10-08T06:58:44;21.60;;;20.10;;
2175;SDS011;1094;49.902;10.876;2023-10-08T07:01:12;21.60;;;20.20;;
2175;SDS011;1094;49.902;10.876;2023-10-08T07:03:38;21.40;;;19.90;;
2175;SDS011;1094;49.902;10.876;2023-10-08T07:06:04;22.77;;;21.07;;
2175;SDS011;1094;49.902;10.876;2023-10-08T07:08:41;21.20;;;19.90;;
2175;SDS011;1094;49.902;10.876;2023-10-08T07:11:08;22.17;;;20.40;;
2175;SDS011;1094;49.902;10.876;2023-10-08T07:13:36;22.37;;;21.00;;
2175;SDS011;1094;49.902;10.876;2023-10-08T07:16:04;21.90;;;20.13;;
2175;SDS011;1094;49.902;10.876;2023-10-08T07:18:36;21.20;;;19.70;;
2175;SDS011;1094;49.902;10.876;2023-10-08T07:21:02;21.70;;;20.20;;
2175;SDS011;1094;49.902;10.876;2023-10-08T07:23:29;21.70;;;20.30;;
2175;SDS011;1094;49.902;10.876;2023-10-08T07:26:01;21.90;;;20.50;;
2175;SDS011;1094;49.902;10.876;2023-10-08T07:28:37;21.20;;;19.70;;
2175;SDS011;1094;49.902;10.876;2023-10-08T07:31:15;21.80;;;20.27;;
2175;SDS011;1094;49.902;10.876;2023-10-08T07:33:45;20.70;;;19.40;;
2175;SDS011;1094;49.902;10.876;2023-10-08T07:36:12;21.00;;;19.73;;
2175;SDS011;1094;49.902;10.876;2023-10-08T07:38:39;21.03;;;19.50;;
2175;SDS011;1094;49.902;10.876;2023-10-08T07:41:07;21.00;;;19.53;;
2175;SDS011;1094;49.902;10.876;2023-10-08T07:43:33;21.20;;;19.80;;
2175;SDS011;1094;49.902;10.876;2023-10-08T07:46:00;20.67;;;19.37;;
2175;SDS011;1094;49.902;10.876;2023-10-08T07:48:26;21.87;;;20.40;;
2175;SDS011;1094;49.902;10.876;2023-10-08T07:50:55;20.90;;;19.40;;
2175;SDS011;1094;49.902;10.876;2023-10-08T07:53:22;21.17;;;19.77;;
2175;SDS011;1094;49.902;10.876;2023-10-08T07:55:49;21.10;;;19.70;;
2175;SDS011;1094;49.902;10.876;2023-10-08T07:58:16;21.10;;;19.73;;
2175;SDS011;1094;49.902;10.876;2023-10-08T08:00:43;20.90;;;19.50;;
2175;SDS011;1094;49.902;10.876;2023-10-08T08:03:19;20.43;;;18.73;;
2175;SDS011;1094;49.902;10.876;2023-10-08T08:05:45;19.57;;;18.30;;
2175;SDS011;1094;49.902;10.876;2023-10-08T08:08:12;20.70;;;19.27;;
2175;SDS011;1094;49.902;10.876;2023-10-08T08:10:42;20.73;;;19.33;;
2175;SDS011;1094;49.902;10.876;2023-10-08T08:13:08;20.90;;;19.60;;
2175;SDS011;1094;49.902;10.876;2023-10-08T08:15:34;20.90;;;19.30;;
2175;SDS011;1094;49.902;10.876;2023-10-08T08:18:06;21.97;;;20.27;;
2175;SDS011;1094;49.902;10.876;2023-10-08T08:20:34;21.30;;;19.90;;
2175;SDS011;1094;49.902;10.876;2023-10-08T08:23:07;21.13;;;19.73;;
2175;SDS011;1094;49.902;10.876;2023-10-08T08:25:40;23.43;;;21.43;;
2175;SDS011;1094;49.902;10.876;2023-10-08T08:28:32;21.67;;;20.37;;
2175;SDS011;1094;49.902;10.876;2023-10-08T08:31:02;23.50;;;22.10;;
2175;SDS011;1094;49.902;10.876;2023-10-08T08:33:29;22.10;;;20.70;;
2175;SDS011;1094;49.902;10.876;2023-10-08T08:36:15;22.70;;;20.90;;
2175;SDS011;1094;49.902;10.876;2023-10-08T08:38:41;21.60;;;19.67;;
2175;SDS011;1094;49.902;10.876;2023-10-08T08:41:08;20.47;;;18.90;;
2175;SDS011;1094;49.902;10.876;2023-10-08T08:43:37;23.67;;;21.90;;
2175;SDS011;1094;49.902;10.876;2023-10-08T08:46:08;21.70;;;20.37;;
2175;SDS011;1094;49.902;10.876;2023-10-08T08:48:37;21.60;;;19.90;;
2175;SDS011;1094;49.902;10.876;2023-10-08T08:51:04;21.37;;;19.97;;
2175;SDS011;1094;49.902;10.876;2023-10-08T08:53:32;23.30;;;21.37;;
2175;SDS011;1094;49.902;10.876;2023-10-08T08:55:58;22.03;;;20.53;;
2175;SDS011;1094;49.902;10.876;2023-10-08T08:58:25;22.40;;;20.60;;
2175;SDS011;1094;49.902;10.876;2023-10-08T09:00:51;21.50;;;19.70;;
2175;SDS011;1094;49.902;10.876;2023-10-08T09:03:19;21.70;;;20.20;;
2175;SDS011;1094;49.902;10.876;2023-10-08T09:05:45;21.60;;;20.23;;
2175;SDS011;1094;49.902;10.876;2023-10-08T09:08:16;22.07;;;20.70;;
2175;SDS011;1094;49.902;10.876;2023-10-08T09:10:43;22.87;;;21.17;;
2175;SDS011;1094;49.902;10.876;2023-10-08T09:13:22;22.17;;;20.37;;
2175;SDS011;1094;49.902;10.876;2023-10-08T09:15:49;21.57;;;20.07;;
2175;SDS011;1094;49.902;10.876;2023-10-08T09:18:15;22.57;;;20.57;;
2175;SDS011;1094;49.902;10.876;2023-10-08T09:20:41;21.80;;;20.33;;
2175;SDS011;1094;49.902;10.876;2023-10-08T09:23:13;22.00;;;20.40;;
2175;SDS011;1094;49.902;10.876;2023-10-08T09:25:43;21.40;;;20.00;;
2175;SDS011;1094;49.902;10.876;2023-10-08T09:28:10;21.90;;;20.20;;
2175;SDS011;1094;49.902;10.876;2023-10-08T09:30:39;22.27;;;20.57;;
2175;SDS011;1094;49.902;10.876;2023-10-08T09:33:05;21.27;;;19.77;;
2175;SDS011;1094;49.902;10.876;2023-10-08T09:35:32;23.37;;;21.53;;
2175;SDS011;1094;49.902;10.876;2023-10-08T09:38:02;21.70;;;20.20;;
2175;SDS011;1094;49.902;10.876;2023-10-08T09:40:28;21.33;;;19.80;;
2175;SDS011;1094;49.902;10.876;2023-10-08T09:42:54;21.03;;;19.50;;
2175;SDS011;1094;49.902;10.876;2023-10-08T09:45:21;22.23;;;20.60;;
2175;SDS011;1094;49.902;10.876;2023-10-08T09:47:52;21.77;;;20.20;;
2175;SDS011;1094;49.902;10.876;2023-10-08T09:50:32;22.87;;;21.37;;
2175;SDS011;1094;49.902;10.876;2023-10-08T09:53:06;22.00;;;19.90;;
2175;SDS011;1094;49.902;10.876;2023-10-08T09:55:36;21.50;;;19.97;;
2175;SDS011;1094;49.902;10.876;2023-10-08T09:58:02;20.57;;;19.27;;
2175;SDS011;1094;49.902;10.876;2023-10-08T10:00:28;21.60;;;20.00;;
2175;SDS011;1094;49.902;10.876;2023-10-08T10:02:59;21.50;;;19.63;;
2175;SDS011;1094;49.902;10.876;2023-10-08T10:05:29;21.80;;;20.13;;
2175;SDS011;1094;49.902;10.876;2023-10-08T10:07:56;21.73;;;20.10;;
2175;SDS011;1094;49.902;10.876;2023-10-08T10:10:25;21.57;;;19.83;;
2175;SDS011;1094;49.902;10.876;2023-10-08T10:12:52;21.97;;;20.13;;
2175;SDS011;1094;49.902;10.876;2023-10-08T10:15:21;23.07;;;21.00;;
2175;SDS011;1094;49.902;10.876;2023-10-08T10:17:47;22.13;;;20.57;;
2175;SDS011;1094;49.902;10.876;2023-10-08T10:20:14;22.30;;;20.80;;
2175;SDS011;1094;49.902;10.876;2023-10-08T10:22:41;22.70;;;21.20;;
2175;SDS011;1094;49.902;10.876;2023-10-08T10:25:08;21.40;;;20.00;;
2175;SDS011;1094;49.902;10.876;2023-10-08T10:30:16;21.43;;;19.63;;
2175;SDS011;1094;49.902;10.876;2023-10-08T10:32:44;20.83;;;19.30;;
2175;SDS011;1094;49.902;10.876;2023-10-08T10:35:15;22.10;;;20.43;;
2175;SDS011;1094;49.902;10.876;2023-10-08T10:37:44;21.90;;;20.23;;
2175;SDS011;1094;49.902;10.876;2023-10-08T10:40:19;22.53;;;20.53;;
2175;SDS011;1094;49.902;10.876;2023-10-08T10:42:55;21.63;;;20.13;;
2175;SDS011;1094;49.902;10.876;2023-10-08T10:45:21;22.00;;;20.30;;
2175;SDS011;1094;49.902;10.876;2023-10-08T10:48:08;21.57;;;19.83;;
2175;SDS011;1094;49.902;10.876;2023-10-08T10:50:43;21.87;;;20.40;;
2175;SDS011;1094;49.902;10.876;2023-10-08T10:53:42;22.23;;;20.37;;
2175;SDS011;1094;49.902;10.876;2023-10-08T10:56:33;21.73;;;20.23;;
2175;SDS011;1094;49.902;10.876;2023-10-08T10:59:05;22.80;;;21.20;;
2175;SDS011;1094;49.902;10.876;2023-10-08T11:01:51;22.53;;;20.80;;
2175;SDS011;1094;49.902;10.876;2023-10-08T11:04:17;22.03;;;20.10;;
2175;SDS011;1094;49.902;10.876;2023-10-08T11:06:46;22.27;;;20.70;;
2175;SDS011;1094;49.902;10.876;2023-10-08T11:09:12;20.97;;;19.57;;
2175;SDS011;1094;49.902;10.876;2023-10-08T11:11:55;21.53;;;20.10;;
2175;SDS011;1094;49.902;10.876;2023-10-08T11:14:24;22.07;;;20.77;;
2175;SDS011;1094;49.902;10.876;2023-10-08T11:16:50;23.03;;;21.13;;
2175;SDS011;1094;49.902;10.876;2023-10-08T11:19:19;22.90;;;21.30;;
2175;SDS011;1094;49.902;10.876;2023-10-08T11:21:52;22.20;;;20.40;;
2175;SDS011;1094;49.902;10.876;2023-10-08T11:24:30;22.07;;;20.10;;
2175;SDS011;1094;49.902;10.876;2023-10-08T11:27:02;22.40;;;20.33;;
2175;SDS011;1094;49.902;10.876;2023-10-08T11:29:53;24.27;;;22.33;;
2175;SDS011;1094;49.902;10.876;2023-10-08T11:32:23;21.67;;;20.27;;
2175;SDS011;1094;49.902;10.876;2023-10-08T11:37:28;21.00;;;19.57;;
2175;SDS011;1094;49.902;10.876;2023-10-08T11:39:54;19.50;;;18.30;;
2175;SDS011;1094;49.902;10.876;2023-10-08T11:42:23;20.27;;;19.13;;
2175;SDS011;1094;49.902;10.876;2023-10-08T11:44:58;21.53;;;19.90;;
2175;SDS011;1094;49.902;10.876;2023-10-08T11:47:27;20.27;;;19.00;;
2175;SDS011;1094;49.902;10.876;2023-10-08T11:50:00;20.07;;;18.90;;
2175;SDS011;1094;49.902;10.876;2023-10-08T11:52:36;20.20;;;18.90;;
2175;SDS011;1094;49.902;10.876;2023-10-08T11:55:10;19.90;;;18.77;;
2175;SDS011;1094;49.902;10.876;2023-10-08T11:57:44;18.83;;;17.83;;
2175;SDS011;1094;49.902;10.876;2023-10-08T12:00:11;18.03;;;17.13;;
2175;SDS011;1094;49.902;10.876;2023-10-08T12:02:47;19.40;;;18.30;;
2175;SDS011;1094;49.902;10.876;2023-10-08T12:05:13;18.33;;;17.33;;
2175;SDS011;1094;49.902;10.876;2023-10-08T12:07:46;18.53;;;17.63;;
2175;SDS011;1094;49.902;10.876;2023-10-08T12:10:12;18.40;;;17.40;;
2175;SDS011;1094;49.902;10.876;2023-10-08T12:12:38;19.20;;;18.10;;
2175;SDS011;1094;49.902;10.876;2023-10-08T12:15:05;19.30;;;17.80;;
2175;SDS011;1094;49.902;10.876;2023-10-08T12:17:34;18.17;;;17.27;;
2175;SDS011;1094;49.902;10.876;2023-10-08T12:20:04;17.50;;;16.70;;
2175;SDS011;1094;49.902;10.876;2023-10-08T12:22:37;18.17;;;17.20;;
2175;SDS011;1094;49.902;10.876;2023-10-08T12:25:03;18.57;;;17.33;;
2175;SDS011;1094;49.902;10.876;2023-10-08T12:27:32;17.57;;;16.77;;
2175;SDS011;1094;49.902;10.876;2023-10-08T12:29:58;17.93;;;17.03;;
2175;SDS011;1094;49.902;10.876;2023-10-08T12:32:24;18.13;;;17.23;;
2175;SDS011;1094;49.902;10.876;2023-10-08T12:34:51;18.67;;;17.77;;
2175;SDS011;1094;49.902;10.876;2023-10-08T12:37:18;18.17;;;17.37;;
2175;SDS011;1094;49.902;10.876;2023-10-08T12:39:44;17.97;;;17.07;;
2175;SDS011;1094;49.902;10.876;2023-10-08T12:42:25;18.20;;;17.20;;
2175;SDS011;1094;49.902;10.876;2023-10-08T12:44:51;17.77;;;16.97;;
2175;SDS011;1094;49.902;10.876;2023-10-08T12:47:17;17.73;;;16.93;;
2175;SDS011;1094;49.902;10.876;2023-10-08T12:49:43;17.83;;;17.03;;
2175;SDS011;1094;49.902;10.876;2023-10-08T12:52:11;17.30;;;16.50;;
2175;SDS011;1094;49.902;10.876;2023-10-08T12:54:39;17.67;;;16.77;;
2175;SDS011;1094;49.902;10.876;2023-10-08T12:57:10;17.97;;;16.87;;
2175;SDS011;1094;49.902;10.876;2023-10-08T12:59:36;17.87;;;17.07;;
2175;SDS011;1094;49.902;10.876;2023-10-08T13:02:03;17.80;;;17.00;;
2175;SDS011;1094;49.902;10.876;2023-10-08T13:04:35;17.83;;;16.83;;
2175;SDS011;1094;49.902;10.876;2023-10-08T13:07:06;17.43;;;16.63;;
2175;SDS011;1094;49.902;10.876;2023-10-08T13:09:32;17.70;;;16.90;;
2175;SDS011;1094;49.902;10.876;2023-10-08T13:12:01;17.47;;;16.67;;
2175;SDS011;1094;49.902;10.876;2023-10-08T13:14:27;17.60;;;16.80;;
2175;SDS011;1094;49.902;10.876;2023-10-08T13:16:53;17.70;;;16.80;;
2175;SDS011;1094;49.902;10.876;2023-10-08T13:19:20;17.30;;;16.50;;
2175;SDS011;1094;49.902;10.876;2023-10-08T13:21:48;17.30;;;16.50;;
2175;SDS011;1094;49.902;10.876;2023-10-08T13:24:17;17.60;;;16.80;;
2175;SDS011;1094;49.902;10.876;2023-10-08T13:26:43;17.97;;;16.83;;
2175;SDS011;1094;49.902;10.876;2023-10-08T13:29:12;17.93;;;17.03;;
2175;SDS011;1094;49.902;10.876;2023-10-08T13:31:39;17.40;;;16.60;;
2175;SDS011;1094;49.902;10.876;2023-10-08T13:34:05;19.90;;;18.37;;
2175;SDS011;1094;49.902;10.876;2023-10-08T13:36:33;17.80;;;17.00;;
2175;SDS011;1094;49.902;10.876;2023-10-08T13:38:59;17.90;;;17.10;;
2175;SDS011;1094;49.902;10.876;2023-10-08T13:41:25;17.27;;;16.47;;
2175;SDS011;1094;49.902;10.876;2023-10-08T13:43:54;17.57;;;16.77;;
2175;SDS011;1094;49.902;10.876;2023-10-08T13:46:30;17.77;;;16.97;;
2175;SDS011;1094;49.902;10.876;2023-10-08T13:49:01;17.57;;;16.77;;
2175;SDS011;1094;49.902;10.876;2023-10-08T13:51:27;17.27;;;16.47;;
2175;SDS011;1094;49.902;10.876;2023-10-08T13:53:53;17.47;;;16.67;;
2175;SDS011;1094;49.902;10.876;2023-10-08T13:56:24;17.40;;;16.60;;
2175;SDS011;1094;49.902;10.876;2023-10-08T13:58:52;17.50;;;16.70;;
2175;SDS011;1094;49.902;10.876;2023-10-08T14:01:22;17.63;;;16.83;;
2175;SDS011;1094;49.902;10.876;2023-10-08T14:03:50;17.47;;;16.67;;
2175;SDS011;1094;49.902;10.876;2023-10-08T14:06:29;17.37;;;16.40;;
2175;SDS011;1094;49.902;10.876;2023-10-08T14:08:56;17.20;;;16.40;;
2175;SDS011;1094;49.902;10.876;2023-10-08T14:11:22;17.30;;;16.50;;
2175;SDS011;1094;49.902;10.876;2023-10-08T14:13:55;17.47;;;16.67;;
2175;SDS011;1094;49.902;10.876;2023-10-08T14:16:21;17.33;;;16.40;;
2175;SDS011;1094;49.902;10.876;2023-10-08T14:18:52;17.50;;;16.60;;
2175;SDS011;1094;49.902;10.876;2023-10-08T14:21:24;17.27;;;16.40;;
2175;SDS011;1094;49.902;10.876;2023-10-08T14:23:58;17.10;;;16.30;;
2175;SDS011;1094;49.902;10.876;2023-10-08T14:26:28;17.03;;;16.23;;
2175;SDS011;1094;49.902;10.876;2023-10-08T14:29:00;17.87;;;16.97;;
2175;SDS011;1094;49.902;10.876;2023-10-08T14:31:32;19.07;;;17.57;;
2175;SDS011;1094;49.902;10.876;2023-10-08T14:33:59;17.00;;;16.10;;
2175;SDS011;1094;49.902;10.876;2023-10-08T14:36:44;17.23;;;16.33;;
2175;SDS011;1094;49.902;10.876;2023-10-08T14:39:29;18.00;;;17.00;;
2175;SDS011;1094;49.902;10.876;2023-10-08T14:42:27;17.13;;;16.23;;
2175;SDS011;1094;49.902;10.876;2023-10-08T14:45:12;17.03;;;16.23;;
2175;SDS011;1094;49.902;10.876;2023-10-08T14:47:38;16.90;;;16.10;;
2175;SDS011;1094;49.902;10.876;2023-10-08T14:50:05;17.60;;;16.60;;
2175;SDS011;1094;49.902;10.876;2023-10-08T14:52:40;17.57;;;16.67;;
2175;SDS011;1094;49.902;10.876;2023-10-08T14:55:06;17.47;;;16.67;;
2175;SDS011;1094;49.902;10.876;2023-10-08T14:57:32;17.20;;;16.40;;
2175;SDS011;1094;49.902;10.876;2023-10-08T14:59:58;17.50;;;16.70;;
2175;SDS011;1094;49.902;10.876;2023-10-08T15:02:24;17.40;;;16.60;;